sensor_id;sensor_type;location;lat;lon;timestamp;P1;durP1;ratioP1;P2;durP2;ratioP2
52180;SDS011;38158;53.338;6.514;2023-11-22T00:00:28;12.35;;;7.05;;
52180;SDS011;38158;53.338;6.514;2023-11-22T00:02:54;11.02;;;6.97;;
52180;SDS011;38158;53.338;6.514;2023-11-22T00:05:19;9.35;;;6.07;;
52180;SDS011;38158;53.338;6.514;2023-11-22T00:07:46;8.93;;;5.78;;
52180;SDS011;38158;53.338;6.514;2023-11-22T00:10:12;8.95;;;5.03;;
52180;SDS011;38158;53.338;6.514;2023-11-22T00:12:39;9.80;;;5.87;;
52180;SDS011;38158;53.338;6.514;2023-11-22T00:15:05;9.93;;;5.85;;
52180;SDS011;38158;53.338;6.514;2023-11-22T00:17:32;9.10;;;5.68;;
52180;SDS011;38158;53.338;6.514;2023-11-22T00:19:59;9.30;;;5.93;;
52180;SDS011;38158;53.338;6.514;2023-11-22T00:22:33;11.00;;;5.70;;
52180;SDS011;38158;53.338;6.514;2023-11-22T00:25:00;10.38;;;5.68;;
52180;SDS011;38158;53.338;6.514;2023-11-22T00:27:29;9.43;;;5.60;;
52180;SDS011;38158;53.338;6.514;2023-11-22T00:29:57;13.45;;;6.00;;
52180;SDS011;38158;53.338;6.514;2023-11-22T00:32:23;10.68;;;6.22;;
52180;SDS011;38158;53.338;6.514;2023-11-22T00:34:49;9.70;;;6.13;;
52180;SDS011;38158;53.338;6.514;2023-11-22T00:37:15;11.43;;;5.85;;
52180;SDS011;38158;53.338;6.514;2023-11-22T00:39:41;8.30;;;5.93;;
52180;SDS011;38158;53.338;6.514;2023-11-22T00:42:07;12.23;;;6.68;;
52180;SDS011;38158;53.338;6.514;2023-11-22T00:44:33;11.57;;;6.87;;
52180;SDS011;38158;53.338;6.514;2023-11-22T00:47:01;9.60;;;5.95;;
52180;SDS011;38158;53.338;6.514;2023-11-22T00:49:27;9.75;;;5.82;;
52180;SDS011;38158;53.338;6.514;2023-11-22T00:51:53;9.80;;;5.95;;
52180;SDS011;38158;53.338;6.514;2023-11-22T00:54:19;9.20;;;5.72;;
52180;SDS011;38158;53.338;6.514;2023-11-22T00:56:45;9.77;;;5.97;;
52180;SDS011;38158;53.338;6.514;2023-11-22T00:59:11;12.23;;;6.43;;
52180;SDS011;38158;53.338;6.514;2023-11-22T01:01:39;12.43;;;6.47;;
52180;SDS011;38158;53.338;6.514;2023-11-22T01:04:05;10.25;;;6.18;;
52180;SDS011;38158;53.338;6.514;2023-11-22T01:06:32;9.45;;;6.00;;
52180;SDS011;38158;53.338;6.514;2023-11-22T01:08:58;10.63;;;5.60;;
52180;SDS011;38158;53.338;6.514;2023-11-22T01:11:24;11.30;;;5.97;;
52180;SDS011;38158;53.338;6.514;2023-11-22T01:13:50;11.52;;;6.20;;
52180;SDS011;38158;53.338;6.514;2023-11-22T01:16:15;11.38;;;6.60;;
52180;SDS011;38158;53.338;6.514;2023-11-22T01:18:41;12.55;;;6.30;;
52180;SDS011;38158;53.338;6.514;2023-11-22T01:21:08;10.90;;;6.30;;
52180;SDS011;38158;53.338;6.514;2023-11-22T01:23:34;9.05;;;5.97;;
52180;SDS011;38158;53.338;6.514;2023-11-22T01:26:00;10.70;;;6.65;;
52180;SDS011;38158;53.338;6.514;2023-11-22T01:28:28;11.40;;;6.00;;
52180;SDS011;38158;53.338;6.514;2023-11-22T01:30:54;10.65;;;6.30;;
52180;SDS011;38158;53.338;6.514;2023-11-22T01:33:21;8.60;;;5.35;;
52180;SDS011;38158;53.338;6.514;2023-11-22T01:35:47;11.77;;;6.40;;
52180;SDS011;38158;53.338;6.514;2023-11-22T01:38:13;8.80;;;6.10;;
52180;SDS011;38158;53.338;6.514;2023-11-22T01:40:46;11.20;;;6.20;;
52180;SDS011;38158;53.338;6.514;2023-11-22T01:43:16;9.57;;;6.10;;
52180;SDS011;38158;53.338;6.514;2023-11-22T01:45:43;9.65;;;6.03;;
52180;SDS011;38158;53.338;6.514;2023-11-22T01:48:10;10.32;;;6.28;;
52180;SDS011;38158;53.338;6.514;2023-11-22T01:50:39;11.25;;;6.57;;
52180;SDS011;38158;53.338;6.514;2023-11-22T01:53:08;10.43;;;6.43;;
52180;SDS011;38158;53.338;6.514;2023-11-22T01:55:35;10.43;;;6.57;;
52180;SDS011;38158;53.338;6.514;2023-11-22T01:58:02;10.90;;;5.95;;
52180;SDS011;38158;53.338;6.514;2023-11-22T02:00:31;9.05;;;5.90;;
52180;SDS011;38158;53.338;6.514;2023-11-22T02:03:00;9.52;;;6.35;;
52180;SDS011;38158;53.338;6.514;2023-11-22T02:05:26;10.13;;;6.05;;
52180;SDS011;38158;53.338;6.514;2023-11-22T02:07:52;10.73;;;6.40;;
52180;SDS011;38158;53.338;6.514;2023-11-22T02:10:18;10.32;;;6.38;;
52180;SDS011;38158;53.338;6.514;2023-11-22T02:12:44;10.02;;;5.97;;
52180;SDS011;38158;53.338;6.514;2023-11-22T02:15:10;8.77;;;5.40;;
52180;SDS011;38158;53.338;6.514;2023-11-22T02:17:36;11.85;;;6.22;;
52180;SDS011;38158;53.338;6.514;2023-11-22T02:20:02;12.15;;;6.35;;
52180;SDS011;38158;53.338;6.514;2023-11-22T02:22:31;9.68;;;6.03;;
52180;SDS011;38158;53.338;6.514;2023-11-22T02:24:57;9.60;;;5.88;;
52180;SDS011;38158;53.338;6.514;2023-11-22T02:27:23;9.05;;;5.88;;
52180;SDS011;38158;53.338;6.514;2023-11-22T02:29:48;10.40;;;6.10;;
52180;SDS011;38158;53.338;6.514;2023-11-22T02:32:15;10.25;;;5.93;;
52180;SDS011;38158;53.338;6.514;2023-11-22T02:34:40;14.45;;;6.38;;
52180;SDS011;38158;53.338;6.514;2023-11-22T02:37:06;11.40;;;6.70;;
52180;SDS011;38158;53.338;6.514;2023-11-22T02:39:56;12.95;;;6.50;;
52180;SDS011;38158;53.338;6.514;2023-11-22T02:42:39;9.10;;;6.28;;
52180;SDS011;38158;53.338;6.514;2023-11-22T02:45:05;11.02;;;6.82;;
52180;SDS011;38158;53.338;6.514;2023-11-22T02:47:31;10.60;;;6.63;;
52180;SDS011;38158;53.338;6.514;2023-11-22T02:49:59;10.57;;;6.68;;
52180;SDS011;38158;53.338;6.514;2023-11-22T02:52:26;9.93;;;6.55;;
52180;SDS011;38158;53.338;6.514;2023-11-22T02:54:54;15.95;;;6.78;;
52180;SDS011;38158;53.338;6.514;2023-11-22T02:57:20;9.75;;;6.07;;
52180;SDS011;38158;53.338;6.514;2023-11-22T02:59:45;9.70;;;6.03;;
52180;SDS011;38158;53.338;6.514;2023-11-22T03:02:11;10.88;;;6.78;;
52180;SDS011;38158;53.338;6.514;2023-11-22T03:04:37;14.60;;;7.00;;
52180;SDS011;38158;53.338;6.514;2023-11-22T03:07:03;14.18;;;6.75;;
52180;SDS011;38158;53.338;6.514;2023-11-22T03:09:31;11.57;;;6.32;;
52180;SDS011;38158;53.338;6.514;2023-11-22T03:11:57;11.15;;;7.07;;
52180;SDS011;38158;53.338;6.514;2023-11-22T03:14:23;12.55;;;7.20;;
52180;SDS011;38158;53.338;6.514;2023-11-22T03:16:49;12.88;;;6.45;;
52180;SDS011;38158;53.338;6.514;2023-11-22T03:19:15;10.65;;;6.57;;
52180;SDS011;38158;53.338;6.514;2023-11-22T03:21:40;10.68;;;6.63;;
52180;SDS011;38158;53.338;6.514;2023-11-22T03:24:09;13.23;;;7.32;;
52180;SDS011;38158;53.338;6.514;2023-11-22T03:26:35;12.10;;;6.25;;
52180;SDS011;38158;53.338;6.514;2023-11-22T03:29:01;12.80;;;6.22;;
52180;SDS011;38158;53.338;6.514;2023-11-22T03:31:27;11.90;;;6.05;;
52180;SDS011;38158;53.338;6.514;2023-11-22T03:33:53;11.00;;;6.22;;
52180;SDS011;38158;53.338;6.514;2023-11-22T03:36:19;13.82;;;7.00;;
52180;SDS011;38158;53.338;6.514;2023-11-22T03:38:46;12.02;;;7.50;;
52180;SDS011;38158;53.338;6.514;2023-11-22T03:41:11;11.65;;;7.00;;
52180;SDS011;38158;53.338;6.514;2023-11-22T03:43:37;9.95;;;6.53;;
52180;SDS011;38158;53.338;6.514;2023-11-22T03:46:03;12.68;;;6.93;;
52180;SDS011;38158;53.338;6.514;2023-11-22T03:48:28;10.63;;;6.15;;
52180;SDS011;38158;53.338;6.514;2023-11-22T03:50:54;11.57;;;6.80;;
52180;SDS011;38158;53.338;6.514;2023-11-22T03:53:20;11.38;;;6.70;;
52180;SDS011;38158;53.338;6.514;2023-11-22T03:55:47;11.63;;;6.25;;
52180;SDS011;38158;53.338;6.514;2023-11-22T03:58:15;8.32;;;5.65;;
52180;SDS011;38158;53.338;6.514;2023-11-22T04:00:40;14.02;;;6.93;;
52180;SDS011;38158;53.338;6.514;2023-11-22T04:03:06;11.30;;;7.00;;
52180;SDS011;38158;53.338;6.514;2023-11-22T04:05:32;11.95;;;7.38;;
52180;SDS011;38158;53.338;6.514;2023-11-22T04:07:58;10.30;;;6.43;;
52180;SDS011;38158;53.338;6.514;2023-11-22T04:10:24;10.75;;;7.30;;
52180;SDS011;38158;53.338;6.514;2023-11-22T04:12:50;12.23;;;6.80;;
52180;SDS011;38158;53.338;6.514;2023-11-22T04:15:16;9.93;;;6.40;;
52180;SDS011;38158;53.338;6.514;2023-11-22T04:17:41;11.70;;;7.10;;
52180;SDS011;38158;53.338;6.514;2023-11-22T04:20:07;12.95;;;7.60;;
52180;SDS011;38158;53.338;6.514;2023-11-22T04:22:35;11.13;;;6.75;;
52180;SDS011;38158;53.338;6.514;2023-11-22T04:25:02;12.32;;;7.13;;
52180;SDS011;38158;53.338;6.514;2023-11-22T04:27:29;11.85;;;7.45;;
52180;SDS011;38158;53.338;6.514;2023-11-22T04:29:55;12.10;;;7.35;;
52180;SDS011;38158;53.338;6.514;2023-11-22T04:32:20;13.00;;;7.93;;
52180;SDS011;38158;53.338;6.514;2023-11-22T04:34:47;13.65;;;7.88;;
52180;SDS011;38158;53.338;6.514;2023-11-22T04:37:13;13.93;;;8.00;;
52180;SDS011;38158;53.338;6.514;2023-11-22T04:39:38;13.07;;;7.72;;
52180;SDS011;38158;53.338;6.514;2023-11-22T04:42:04;13.57;;;7.65;;
52180;SDS011;38158;53.338;6.514;2023-11-22T04:44:30;15.10;;;8.73;;
52180;SDS011;38158;53.338;6.514;2023-11-22T04:46:57;18.10;;;8.60;;
52180;SDS011;38158;53.338;6.514;2023-11-22T04:49:24;15.75;;;9.13;;
52180;SDS011;38158;53.338;6.514;2023-11-22T04:51:50;16.00;;;8.00;;
52180;SDS011;38158;53.338;6.514;2023-11-22T04:54:16;16.60;;;8.90;;
52180;SDS011;38158;53.338;6.514;2023-11-22T04:56:42;15.65;;;8.98;;
52180;SDS011;38158;53.338;6.514;2023-11-22T04:59:08;16.75;;;9.25;;
52180;SDS011;38158;53.338;6.514;2023-11-22T05:01:34;15.75;;;8.98;;
52180;SDS011;38158;53.338;6.514;2023-11-22T05:04:00;14.07;;;8.75;;
52180;SDS011;38158;53.338;6.514;2023-11-22T05:06:26;16.08;;;10.10;;
52180;SDS011;38158;53.338;6.514;2023-11-22T05:11:20;14.68;;;9.10;;
52180;SDS011;38158;53.338;6.514;2023-11-22T05:13:46;15.35;;;9.65;;
52180;SDS011;38158;53.338;6.514;2023-11-22T05:16:11;16.23;;;9.10;;
52180;SDS011;38158;53.338;6.514;2023-11-22T05:18:38;16.27;;;10.02;;
52180;SDS011;38158;53.338;6.514;2023-11-22T05:21:04;16.15;;;9.60;;
52180;SDS011;38158;53.338;6.514;2023-11-22T05:23:30;16.92;;;9.77;;
52180;SDS011;38158;53.338;6.514;2023-11-22T05:25:58;18.65;;;10.25;;
52180;SDS011;38158;53.338;6.514;2023-11-22T05:28:28;16.52;;;10.02;;
52180;SDS011;38158;53.338;6.514;2023-11-22T05:30:54;20.00;;;10.40;;
52180;SDS011;38158;53.338;6.514;2023-11-22T05:33:20;14.60;;;9.85;;
52180;SDS011;38158;53.338;6.514;2023-11-22T05:35:45;16.65;;;9.25;;
52180;SDS011;38158;53.338;6.514;2023-11-22T05:38:11;19.23;;;10.82;;
52180;SDS011;38158;53.338;6.514;2023-11-22T05:40:37;16.02;;;10.05;;
52180;SDS011;38158;53.338;6.514;2023-11-22T05:43:03;16.42;;;10.30;;
52180;SDS011;38158;53.338;6.514;2023-11-22T05:45:30;16.17;;;9.88;;
52180;SDS011;38158;53.338;6.514;2023-11-22T05:47:55;15.45;;;9.82;;
52180;SDS011;38158;53.338;6.514;2023-11-22T05:50:21;15.85;;;10.57;;
52180;SDS011;38158;53.338;6.514;2023-11-22T05:52:50;16.80;;;10.52;;
52180;SDS011;38158;53.338;6.514;2023-11-22T05:55:15;16.48;;;10.85;;
52180;SDS011;38158;53.338;6.514;2023-11-22T05:57:43;18.63;;;10.80;;
52180;SDS011;38158;53.338;6.514;2023-11-22T06:00:09;16.90;;;10.07;;
52180;SDS011;38158;53.338;6.514;2023-11-22T06:02:36;18.10;;;10.23;;
52180;SDS011;38158;53.338;6.514;2023-11-22T06:05:04;18.17;;;10.18;;
52180;SDS011;38158;53.338;6.514;2023-11-22T06:07:31;18.38;;;11.38;;
52180;SDS011;38158;53.338;6.514;2023-11-22T06:09:56;24.33;;;11.35;;
52180;SDS011;38158;53.338;6.514;2023-11-22T06:12:23;17.55;;;11.25;;
52180;SDS011;38158;53.338;6.514;2023-11-22T06:14:48;16.98;;;11.05;;
52180;SDS011;38158;53.338;6.514;2023-11-22T06:17:14;18.85;;;11.15;;
52180;SDS011;38158;53.338;6.514;2023-11-22T06:19:40;18.40;;;11.40;;
52180;SDS011;38158;53.338;6.514;2023-11-22T06:22:09;18.17;;;11.07;;
52180;SDS011;38158;53.338;6.514;2023-11-22T06:24:34;21.73;;;11.35;;
52180;SDS011;38158;53.338;6.514;2023-11-22T06:27:01;17.75;;;10.98;;
52180;SDS011;38158;53.338;6.514;2023-11-22T06:29:28;17.42;;;10.65;;
52180;SDS011;38158;53.338;6.514;2023-11-22T06:31:54;19.42;;;11.25;;
52180;SDS011;38158;53.338;6.514;2023-11-22T06:34:20;20.92;;;11.98;;
52180;SDS011;38158;53.338;6.514;2023-11-22T06:36:45;18.40;;;11.13;;
52180;SDS011;38158;53.338;6.514;2023-11-22T06:39:11;19.23;;;11.45;;
52180;SDS011;38158;53.338;6.514;2023-11-22T06:41:40;20.42;;;11.50;;
52180;SDS011;38158;53.338;6.514;2023-11-22T06:44:06;17.55;;;11.45;;
52180;SDS011;38158;53.338;6.514;2023-11-22T06:46:32;20.60;;;12.20;;
52180;SDS011;38158;53.338;6.514;2023-11-22T06:48:57;20.13;;;11.85;;
52180;SDS011;38158;53.338;6.514;2023-11-22T06:51:23;21.52;;;11.82;;
52180;SDS011;38158;53.338;6.514;2023-11-22T06:53:49;24.10;;;13.00;;
52180;SDS011;38158;53.338;6.514;2023-11-22T06:56:17;19.83;;;11.77;;
52180;SDS011;38158;53.338;6.514;2023-11-22T06:58:43;19.95;;;11.45;;
52180;SDS011;38158;53.338;6.514;2023-11-22T07:01:09;22.95;;;12.50;;
52180;SDS011;38158;53.338;6.514;2023-11-22T07:03:35;19.83;;;11.43;;
52180;SDS011;38158;53.338;6.514;2023-11-22T07:08:29;18.45;;;11.13;;
52180;SDS011;38158;53.338;6.514;2023-11-22T07:10:55;19.40;;;10.97;;
52180;SDS011;38158;53.338;6.514;2023-11-22T07:13:22;22.95;;;12.68;;
52180;SDS011;38158;53.338;6.514;2023-11-22T07:15:49;22.77;;;10.80;;
52180;SDS011;38158;53.338;6.514;2023-11-22T07:18:16;20.13;;;12.00;;
52180;SDS011;38158;53.338;6.514;2023-11-22T07:20:42;21.08;;;11.93;;
52180;SDS011;38158;53.338;6.514;2023-11-22T07:23:07;22.52;;;11.77;;
52180;SDS011;38158;53.338;6.514;2023-11-22T07:25:38;21.30;;;12.52;;
52180;SDS011;38158;53.338;6.514;2023-11-22T07:28:04;23.58;;;14.55;;
52180;SDS011;38158;53.338;6.514;2023-11-22T07:30:30;25.50;;;14.52;;
52180;SDS011;38158;53.338;6.514;2023-11-22T07:32:58;26.25;;;13.90;;
52180;SDS011;38158;53.338;6.514;2023-11-22T07:35:24;24.77;;;14.20;;
52180;SDS011;38158;53.338;6.514;2023-11-22T07:37:51;23.60;;;13.57;;
52180;SDS011;38158;53.338;6.514;2023-11-22T07:40:17;24.08;;;14.10;;
52180;SDS011;38158;53.338;6.514;2023-11-22T07:45:10;24.67;;;14.20;;
52180;SDS011;38158;53.338;6.514;2023-11-22T07:47:38;24.05;;;13.18;;
52180;SDS011;38158;53.338;6.514;2023-11-22T07:50:07;24.15;;;13.48;;
52180;SDS011;38158;53.338;6.514;2023-11-22T07:52:33;24.23;;;13.98;;
52180;SDS011;38158;53.338;6.514;2023-11-22T07:54:59;27.13;;;14.93;;
52180;SDS011;38158;53.338;6.514;2023-11-22T07:57:25;25.95;;;14.18;;
52180;SDS011;38158;53.338;6.514;2023-11-22T07:59:50;21.60;;;13.88;;
52180;SDS011;38158;53.338;6.514;2023-11-22T08:02:21;24.73;;;13.88;;
52180;SDS011;38158;53.338;6.514;2023-11-22T08:04:46;23.67;;;13.82;;
52180;SDS011;38158;53.338;6.514;2023-11-22T08:07:15;27.15;;;16.25;;
52180;SDS011;38158;53.338;6.514;2023-11-22T08:09:42;24.85;;;13.80;;
52180;SDS011;38158;53.338;6.514;2023-11-22T08:12:08;25.33;;;14.43;;
52180;SDS011;38158;53.338;6.514;2023-11-22T08:14:36;25.15;;;14.32;;
52180;SDS011;38158;53.338;6.514;2023-11-22T08:17:02;28.10;;;15.10;;
52180;SDS011;38158;53.338;6.514;2023-11-22T08:19:29;23.47;;;13.90;;
52180;SDS011;38158;53.338;6.514;2023-11-22T08:21:55;26.95;;;15.65;;
52180;SDS011;38158;53.338;6.514;2023-11-22T08:24:20;26.30;;;14.60;;
52180;SDS011;38158;53.338;6.514;2023-11-22T08:26:47;23.77;;;14.63;;
52180;SDS011;38158;53.338;6.514;2023-11-22T08:29:12;27.55;;;15.40;;
52180;SDS011;38158;53.338;6.514;2023-11-22T08:31:39;29.33;;;18.40;;
52180;SDS011;38158;53.338;6.514;2023-11-22T08:34:05;27.20;;;17.38;;
52180;SDS011;38158;53.338;6.514;2023-11-22T08:36:34;22.70;;;13.25;;
52180;SDS011;38158;53.338;6.514;2023-11-22T08:39:00;25.10;;;15.55;;
52180;SDS011;38158;53.338;6.514;2023-11-22T08:41:28;28.40;;;16.00;;
52180;SDS011;38158;53.338;6.514;2023-11-22T08:43:55;28.20;;;16.13;;
52180;SDS011;38158;53.338;6.514;2023-11-22T08:46:22;24.58;;;15.52;;
52180;SDS011;38158;53.338;6.514;2023-11-22T08:48:48;22.92;;;14.18;;
52180;SDS011;38158;53.338;6.514;2023-11-22T08:51:16;24.88;;;15.05;;
52180;SDS011;38158;53.338;6.514;2023-11-22T08:53:42;26.00;;;16.05;;
52180;SDS011;38158;53.338;6.514;2023-11-22T08:56:11;23.27;;;14.10;;
52180;SDS011;38158;53.338;6.514;2023-11-22T08:58:38;24.60;;;14.98;;
52180;SDS011;38158;53.338;6.514;2023-11-22T09:01:04;27.90;;;16.40;;
52180;SDS011;38158;53.338;6.514;2023-11-22T09:03:31;22.73;;;13.52;;
52180;SDS011;38158;53.338;6.514;2023-11-22T09:05:59;25.20;;;14.63;;
52180;SDS011;38158;53.338;6.514;2023-11-22T09:08:25;24.42;;;15.57;;
52180;SDS011;38158;53.338;6.514;2023-11-22T09:10:51;24.13;;;13.13;;
52180;SDS011;38158;53.338;6.514;2023-11-22T09:13:18;24.35;;;14.82;;
52180;SDS011;38158;53.338;6.514;2023-11-22T09:15:46;23.13;;;14.73;;
52180;SDS011;38158;53.338;6.514;2023-11-22T09:18:11;28.17;;;15.68;;
52180;SDS011;38158;53.338;6.514;2023-11-22T09:20:37;21.80;;;12.80;;
52180;SDS011;38158;53.338;6.514;2023-11-22T09:23:04;22.70;;;12.80;;
52180;SDS011;38158;53.338;6.514;2023-11-22T09:25:30;22.17;;;13.27;;
52180;SDS011;38158;53.338;6.514;2023-11-22T09:27:58;20.38;;;12.30;;
52180;SDS011;38158;53.338;6.514;2023-11-22T09:30:27;22.30;;;12.73;;
52180;SDS011;38158;53.338;6.514;2023-11-22T09:32:58;25.25;;;13.68;;
52180;SDS011;38158;53.338;6.514;2023-11-22T09:35:24;22.00;;;13.48;;
52180;SDS011;38158;53.338;6.514;2023-11-22T09:37:50;25.03;;;14.47;;
52180;SDS011;38158;53.338;6.514;2023-11-22T09:40:17;21.52;;;13.50;;
52180;SDS011;38158;53.338;6.514;2023-11-22T09:42:43;24.87;;;14.80;;
52180;SDS011;38158;53.338;6.514;2023-11-22T09:45:16;22.58;;;14.43;;
52180;SDS011;38158;53.338;6.514;2023-11-22T09:47:45;26.30;;;14.95;;
52180;SDS011;38158;53.338;6.514;2023-11-22T09:50:17;24.10;;;14.30;;
52180;SDS011;38158;53.338;6.514;2023-11-22T09:53:34;24.52;;;13.93;;
52180;SDS011;38158;53.338;6.514;2023-11-22T09:56:25;24.42;;;12.68;;
52180;SDS011;38158;53.338;6.514;2023-11-22T09:58:55;20.23;;;11.85;;
52180;SDS011;38158;53.338;6.514;2023-11-22T10:01:26;23.67;;;14.20;;
52180;SDS011;38158;53.338;6.514;2023-11-22T10:04:01;21.50;;;13.40;;
52180;SDS011;38158;53.338;6.514;2023-11-22T10:06:30;22.02;;;13.45;;
52180;SDS011;38158;53.338;6.514;2023-11-22T10:08:59;19.80;;;12.80;;
52180;SDS011;38158;53.338;6.514;2023-11-22T10:11:26;24.30;;;13.32;;
52180;SDS011;38158;53.338;6.514;2023-11-22T10:13:54;18.05;;;11.82;;
52180;SDS011;38158;53.338;6.514;2023-11-22T10:16:19;20.60;;;12.02;;
52180;SDS011;38158;53.338;6.514;2023-11-22T10:18:47;20.30;;;12.77;;
52180;SDS011;38158;53.338;6.514;2023-11-22T10:21:23;20.90;;;12.43;;
52180;SDS011;38158;53.338;6.514;2023-11-22T10:24:11;22.85;;;13.63;;
52180;SDS011;38158;53.338;6.514;2023-11-22T10:26:36;18.95;;;11.88;;
52180;SDS011;38158;53.338;6.514;2023-11-22T10:29:02;21.85;;;13.13;;
52180;SDS011;38158;53.338;6.514;2023-11-22T10:31:27;19.90;;;11.85;;
52180;SDS011;38158;53.338;6.514;2023-11-22T10:33:53;22.70;;;14.27;;
52180;SDS011;38158;53.338;6.514;2023-11-22T10:36:22;23.42;;;13.98;;
52180;SDS011;38158;53.338;6.514;2023-11-22T10:38:49;20.85;;;13.32;;
52180;SDS011;38158;53.338;6.514;2023-11-22T10:41:16;24.50;;;12.05;;
52180;SDS011;38158;53.338;6.514;2023-11-22T10:43:42;20.35;;;13.05;;
52180;SDS011;38158;53.338;6.514;2023-11-22T10:46:10;20.67;;;11.80;;
52180;SDS011;38158;53.338;6.514;2023-11-22T10:48:38;18.25;;;12.35;;
52180;SDS011;38158;53.338;6.514;2023-11-22T10:51:04;21.50;;;12.57;;
52180;SDS011;38158;53.338;6.514;2023-11-22T10:53:34;17.65;;;11.43;;
52180;SDS011;38158;53.338;6.514;2023-11-22T10:58:28;18.33;;;10.98;;
52180;SDS011;38158;53.338;6.514;2023-11-22T11:00:58;17.30;;;10.77;;
52180;SDS011;38158;53.338;6.514;2023-11-22T11:03:28;15.63;;;10.50;;
52180;SDS011;38158;53.338;6.514;2023-11-22T11:05:59;19.10;;;11.52;;
52180;SDS011;38158;53.338;6.514;2023-11-22T11:08:32;17.60;;;10.10;;
52180;SDS011;38158;53.338;6.514;2023-11-22T11:11:03;15.93;;;10.52;;
52180;SDS011;38158;53.338;6.514;2023-11-22T11:13:31;17.83;;;12.15;;
52180;SDS011;38158;53.338;6.514;2023-11-22T11:15:57;15.07;;;10.95;;
52180;SDS011;38158;53.338;6.514;2023-11-22T11:18:23;16.27;;;10.67;;
52180;SDS011;38158;53.338;6.514;2023-11-22T11:23:22;14.93;;;9.70;;
52180;SDS011;38158;53.338;6.514;2023-11-22T11:25:53;15.88;;;9.93;;
52180;SDS011;38158;53.338;6.514;2023-11-22T11:28:19;18.80;;;10.27;;
52180;SDS011;38158;53.338;6.514;2023-11-22T11:30:47;15.10;;;9.77;;
52180;SDS011;38158;53.338;6.514;2023-11-22T11:33:13;14.43;;;9.07;;
52180;SDS011;38158;53.338;6.514;2023-11-22T11:35:44;14.18;;;9.20;;
52180;SDS011;38158;53.338;6.514;2023-11-22T11:38:13;15.07;;;8.63;;
52180;SDS011;38158;53.338;6.514;2023-11-22T11:40:43;14.63;;;7.82;;
52180;SDS011;38158;53.338;6.514;2023-11-22T11:43:11;12.20;;;8.88;;
52180;SDS011;38158;53.338;6.514;2023-11-22T11:45:41;13.43;;;8.35;;
52180;SDS011;38158;53.338;6.514;2023-11-22T11:48:14;11.02;;;7.82;;
52180;SDS011;38158;53.338;6.514;2023-11-22T11:50:42;12.88;;;9.23;;
52180;SDS011;38158;53.338;6.514;2023-11-22T11:53:11;11.80;;;7.50;;
52180;SDS011;38158;53.338;6.514;2023-11-22T11:55:37;12.32;;;7.30;;
52180;SDS011;38158;53.338;6.514;2023-11-22T11:58:06;14.87;;;8.77;;
52180;SDS011;38158;53.338;6.514;2023-11-22T12:00:35;11.23;;;7.22;;
52180;SDS011;38158;53.338;6.514;2023-11-22T12:03:05;12.38;;;7.53;;
52180;SDS011;38158;53.338;6.514;2023-11-22T12:05:37;11.60;;;7.90;;
52180;SDS011;38158;53.338;6.514;2023-11-22T12:08:03;14.45;;;6.75;;
52180;SDS011;38158;53.338;6.514;2023-11-22T12:10:29;11.02;;;7.13;;
52180;SDS011;38158;53.338;6.514;2023-11-22T12:12:56;12.13;;;7.68;;
52180;SDS011;38158;53.338;6.514;2023-11-22T12:15:22;10.30;;;6.60;;
52180;SDS011;38158;53.338;6.514;2023-11-22T12:17:50;10.43;;;7.60;;
52180;SDS011;38158;53.338;6.514;2023-11-22T12:20:19;10.77;;;6.75;;
52180;SDS011;38158;53.338;6.514;2023-11-22T12:22:49;11.63;;;7.88;;
52180;SDS011;38158;53.338;6.514;2023-11-22T12:25:15;11.18;;;7.00;;
52180;SDS011;38158;53.338;6.514;2023-11-22T12:27:41;10.88;;;7.28;;
52180;SDS011;38158;53.338;6.514;2023-11-22T12:30:09;12.93;;;6.95;;
52180;SDS011;38158;53.338;6.514;2023-11-22T12:32:52;9.18;;;6.38;;
52180;SDS011;38158;53.338;6.514;2023-11-22T12:35:18;11.60;;;7.95;;
52180;SDS011;38158;53.338;6.514;2023-11-22T12:37:44;10.95;;;7.30;;
52180;SDS011;38158;53.338;6.514;2023-11-22T12:40:09;11.38;;;7.78;;
52180;SDS011;38158;53.338;6.514;2023-11-22T12:42:45;10.40;;;6.70;;
52180;SDS011;38158;53.338;6.514;2023-11-22T12:45:19;10.88;;;7.28;;
52180;SDS011;38158;53.338;6.514;2023-11-22T12:47:46;12.13;;;7.57;;
52180;SDS011;38158;53.338;6.514;2023-11-22T12:50:28;12.45;;;7.68;;
52180;SDS011;38158;53.338;6.514;2023-11-22T12:52:55;10.95;;;7.07;;
52180;SDS011;38158;53.338;6.514;2023-11-22T12:55:20;15.13;;;7.82;;
52180;SDS011;38158;53.338;6.514;2023-11-22T12:57:55;11.80;;;6.85;;
52180;SDS011;38158;53.338;6.514;2023-11-22T13:00:23;11.68;;;7.32;;
52180;SDS011;38158;53.338;6.514;2023-11-22T13:02:49;11.73;;;7.30;;
52180;SDS011;38158;53.338;6.514;2023-11-22T13:05:18;9.82;;;6.40;;
52180;SDS011;38158;53.338;6.514;2023-11-22T13:07:44;10.52;;;7.15;;
52180;SDS011;38158;53.338;6.514;2023-11-22T13:10:09;12.15;;;7.80;;
52180;SDS011;38158;53.338;6.514;2023-11-22T13:12:35;13.10;;;8.07;;
52180;SDS011;38158;53.338;6.514;2023-11-22T13:15:01;10.80;;;6.95;;
52180;SDS011;38158;53.338;6.514;2023-11-22T13:17:26;13.85;;;7.85;;
52180;SDS011;38158;53.338;6.514;2023-11-22T13:19:53;11.00;;;7.10;;
52180;SDS011;38158;53.338;6.514;2023-11-22T13:22:19;13.38;;;8.02;;
52180;SDS011;38158;53.338;6.514;2023-11-22T13:24:44;11.27;;;7.05;;
52180;SDS011;38158;53.338;6.514;2023-11-22T13:27:10;12.85;;;8.35;;
52180;SDS011;38158;53.338;6.514;2023-11-22T13:29:36;11.45;;;7.85;;
52180;SDS011;38158;53.338;6.514;2023-11-22T13:32:02;13.38;;;8.23;;
52180;SDS011;38158;53.338;6.514;2023-11-22T13:34:28;11.43;;;7.32;;
52180;SDS011;38158;53.338;6.514;2023-11-22T13:36:54;11.65;;;7.90;;
52180;SDS011;38158;53.338;6.514;2023-11-22T13:39:21;12.17;;;8.13;;
52180;SDS011;38158;53.338;6.514;2023-11-22T13:41:47;14.27;;;9.07;;
52180;SDS011;38158;53.338;6.514;2023-11-22T13:44:14;12.15;;;8.50;;
52180;SDS011;38158;53.338;6.514;2023-11-22T13:46:40;11.57;;;6.70;;
52180;SDS011;38158;53.338;6.514;2023-11-22T13:49:06;11.45;;;7.60;;
52180;SDS011;38158;53.338;6.514;2023-11-22T13:51:31;13.35;;;8.13;;
52180;SDS011;38158;53.338;6.514;2023-11-22T13:53:57;12.95;;;7.80;;
52180;SDS011;38158;53.338;6.514;2023-11-22T13:56:26;13.77;;;8.52;;
52180;SDS011;38158;53.338;6.514;2023-11-22T13:58:51;10.98;;;7.22;;
52180;SDS011;38158;53.338;6.514;2023-11-22T14:01:17;13.05;;;8.15;;
52180;SDS011;38158;53.338;6.514;2023-11-22T14:03:46;13.02;;;8.30;;
52180;SDS011;38158;53.338;6.514;2023-11-22T14:06:13;12.65;;;8.52;;
52180;SDS011;38158;53.338;6.514;2023-11-22T14:08:41;11.48;;;7.63;;
52180;SDS011;38158;53.338;6.514;2023-11-22T14:11:07;14.25;;;8.32;;
52180;SDS011;38158;53.338;6.514;2023-11-22T14:13:33;13.20;;;8.48;;
52180;SDS011;38158;53.338;6.514;2023-11-22T14:15:58;12.27;;;7.97;;
52180;SDS011;38158;53.338;6.514;2023-11-22T14:20:51;12.13;;;8.00;;
52180;SDS011;38158;53.338;6.514;2023-11-22T14:23:18;13.02;;;7.88;;
52180;SDS011;38158;53.338;6.514;2023-11-22T14:25:44;15.63;;;8.93;;
52180;SDS011;38158;53.338;6.514;2023-11-22T14:28:10;12.48;;;8.00;;
52180;SDS011;38158;53.338;6.514;2023-11-22T14:30:36;12.85;;;8.63;;
52180;SDS011;38158;53.338;6.514;2023-11-22T14:33:02;11.95;;;8.18;;
52180;SDS011;38158;53.338;6.514;2023-11-22T14:35:32;12.98;;;8.73;;
52180;SDS011;38158;53.338;6.514;2023-11-22T14:38:00;14.95;;;9.00;;
52180;SDS011;38158;53.338;6.514;2023-11-22T14:40:28;14.80;;;8.30;;
52180;SDS011;38158;53.338;6.514;2023-11-22T14:42:55;11.57;;;7.88;;
52180;SDS011;38158;53.338;6.514;2023-11-22T14:45:21;11.45;;;7.47;;